METAR Data
IDs: Format: Raw Decoded Include TAF

Data at: 0531 UTC 24 Sep 2018

KGLD 240453Z AUTO 18017G25KT 10SM CLR 18/08 A2987 RMK AO2 SLP070 T01830078
KGLD 240353Z AUTO 17015KT 10SM CLR 19/07 A2987 RMK AO2 SLP074 T01890067
KGLD 240253Z AUTO 17016G25KT 10SM CLR 21/06 A2987 RMK AO2 SLP080 T02060056 53007
KGLD 240153Z AUTO 17016KT 10SM CLR 22/06 A2986 RMK AO2 SLP079 T02220056
KGLD 240053Z AUTO 16016KT 10SM CLR 25/06 A2985 RMK AO2 PK WND 17028/0002 SLP076 T02500061
KGLD 232353Z AUTO 16020G26KT 10SM CLR 29/06 A2985 RMK AO2 PK WND 18029/2258 RAB03E25 SLP069 P0000 60000 T02890061 10322 20289 55007
KGLD 232253Z AUTO 18019G28KT 10SM CLR 31/08 A2985 RMK AO2 PK WND 16030/2225 SLP066 T03060078
KGLD 232153Z AUTO 17015G25KT 10SM CLR 32/09 A2986 RMK AO2 PK WND 18030/2122 SLP068 T03170089
KGLD 232053Z AUTO 17018G25KT 10SM CLR 32/09 A2987 RMK AO2 PK WND 17028/2017 SLP072 T03170089 58025
KGLD 231953Z AUTO 18018G30KT 10SM CLR 31/09 A2990 RMK AO2 PK WND 16030/1946 SLP084 T03110094
KGLD 231853Z AUTO 17015G24KT 10SM CLR 29/09 A2993 RMK AO2 SLP093 T02940094
KGLD 231753Z AUTO 18012KT 10SM CLR 29/09 A2995 RMK AO2 SLP101 T02940094 10300 20100 58011
KGLD 231653Z AUTO 19009KT 10SM CLR 27/09 A2998 RMK AO2 SLP112 T02720089
KGLD 231553Z AUTO 19007KT 10SM CLR 24/08 A2999 RMK AO2 SLP119 T02390083
KGLD 231453Z AUTO 21004KT 10SM CLR 18/08 A2999 RMK AO2 SLP126 T01780078 51003
KGLD 231353Z AUTO 23004KT 10SM CLR 14/06 A2999 RMK AO2 SLP128 T01440061
KGLD 231253Z AUTO 21004KT 10SM CLR 12/06 A2999 RMK AO2 SLP126 T01170056
KGLD 231153Z AUTO 21010KT 10SM CLR 12/06 A2998 RMK AO2 SLP120 T01220056 10150 20122 56009
KGLD 231053Z AUTO 20013KT 10SM CLR 12/06 A2999 RMK AO2 SLP120 T01220056
KGLD 230953Z AUTO 20013KT 10SM CLR 13/06 A3000 RMK AO2 SLP122 T01280061
KGLD 230853Z AUTO 19014KT 10SM CLR 13/06 A3001 RMK AO2 SLP126 T01330061 58014
KGLD 230753Z AUTO 19014KT 10SM CLR 13/07 A3003 RMK AO2 SLP134 T01330067
KGLD 230653Z AUTO 20016G25KT 10SM CLR 14/06 A3005 RMK AO2 SLP138 T01440061 402780067
KGLD 230553Z AUTO 19016G25KT 10SM CLR 15/06 A3006 RMK AO2 SLP144 T01500061 10244 20144 58003
KGLD 230453Z AUTO 19015G24KT 10SM CLR 15/06 A3007 RMK AO2 SLP151 T01500056
KGLD 230353Z AUTO 19016KT 10SM CLR 16/06 A3007 RMK AO2 SLP154 T01610056
KGLD 230253Z AUTO 18014KT 10SM CLR 17/06 A3007 RMK AO2 SLP158 T01720056 53006
KGLD 230153Z AUTO 17015KT 10SM CLR 19/06 A3006 RMK AO2 SLP155 T01890056
KGLD 230053Z AUTO 17013KT 10SM CLR 21/06 A3005 RMK AO2 SLP156 T02110056
KGLD 222353Z AUTO 17015KT 10SM CLR 25/07 A3005 RMK AO2 SLP150 T02500067 10278 20239 55007
KGLD 222253Z AUTO 18017G25KT 10SM CLR 27/07 A3005 RMK AO2 PK WND 17027/2236 SLP147 T02670072
KGLD 222153Z AUTO 18018KT 10SM CLR 27/07 A3006 RMK AO2 PK WND 17027/2123 SLP148 T02720072
KGLD 222053Z AUTO 19017KT 8SM CLR 27/07 A3007 RMK AO2 PK WND 17031/2001 SLP154 T02720072 57026
KGLD 221953Z AUTO 19017G27KT 8SM CLR 27/07 A3010 RMK AO2 PK WND 20029/1856 SLP163 T02670067
KGLD 221853Z AUTO 19020G27KT 9SM CLR 26/07 A3013 RMK AO2 PK WND 19029/1805 SLP176 T02560067
KGLD 221753Z AUTO 19016KT 9SM CLR 24/07 A3016 RMK AO2 PK WND 18029/1735 SLP185 T02390067 10239 20072 58015